createdAt,value
2022-12-19T00:01:26.820Z,27.00
2022-12-19T00:03:57.063Z,27.88
2022-12-19T00:06:26.729Z,27.33
2022-12-19T00:09:00.365Z,26.80
2022-12-19T00:11:30.581Z,26.52
2022-12-19T00:14:00.126Z,26.80
2022-12-19T00:16:30.664Z,26.92
2022-12-19T00:19:01.538Z,26.17
2022-12-19T00:21:34.884Z,27.05
2022-12-19T00:24:20.076Z,26.58
2022-12-19T00:26:50.553Z,27.02
2022-12-19T00:29:20.233Z,27.35
2022-12-19T00:31:49.744Z,26.55
2022-12-19T00:34:19.274Z,27.13
2022-12-19T00:36:48.770Z,27.45
2022-12-19T00:39:20.787Z,26.15
2022-12-19T00:41:50.270Z,27.42
2022-12-19T00:44:19.740Z,26.25
2022-12-19T00:46:52.330Z,27.83
2022-12-19T00:49:22.658Z,26.58
2022-12-19T00:51:52.143Z,27.42
2022-12-19T00:54:24.237Z,26.20
2022-12-19T00:56:54.283Z,27.23
2022-12-19T00:59:26.805Z,26.40
2022-12-19T01:01:57.479Z,27.02
2022-12-19T01:04:28.848Z,26.90
2022-12-19T01:07:02.667Z,27.55
2022-12-19T01:09:35.667Z,27.30
2022-12-19T01:12:17.629Z,28.40
2022-12-19T01:14:47.128Z,27.40
2022-12-19T01:17:16.621Z,27.23
2022-12-19T01:19:46.094Z,26.63
2022-12-19T01:22:15.733Z,26.95
2022-12-19T01:24:48.091Z,26.25
2022-12-19T01:27:17.572Z,27.15
2022-12-19T01:29:52.513Z,27.55
2022-12-19T01:32:23.324Z,26.85
2022-12-19T01:34:52.794Z,27.52
2022-12-19T01:37:22.422Z,26.70
2022-12-19T01:39:54.483Z,28.25
2022-12-19T01:42:24.615Z,27.70
2022-12-19T01:45:33.459Z,28.13
2022-12-19T01:48:07.916Z,27.85
2022-12-19T01:50:40.396Z,28.02
2022-12-19T01:53:17.585Z,26.33
2022-12-19T01:55:50.215Z,26.60
2022-12-19T01:58:19.679Z,27.55
2022-12-19T02:00:49.158Z,26.90
2022-12-19T02:03:21.354Z,28.17
2022-12-19T02:05:50.800Z,27.05
2022-12-19T02:08:20.285Z,26.58
2022-12-19T02:10:52.449Z,26.17
2022-12-19T02:13:21.939Z,26.75
2022-12-19T02:15:54.884Z,26.65
2022-12-19T02:18:29.554Z,26.02
2022-12-19T02:21:25.919Z,26.63
2022-12-19T02:24:21.681Z,26.88
2022-12-19T02:27:17.348Z,26.80
2022-12-19T02:30:09.036Z,26.85
2022-12-19T02:32:44.120Z,26.73
2022-12-19T02:35:16.690Z,26.55
2022-12-19T02:37:47.921Z,26.48
2022-12-19T02:40:20.346Z,26.40
2022-12-19T02:42:51.555Z,25.88
2022-12-19T02:45:28.310Z,26.95
2022-12-19T02:48:04.464Z,25.33
2022-12-19T02:50:42.103Z,25.77
2022-12-19T02:53:12.372Z,25.60
2022-12-19T02:55:45.289Z,27.50
2022-12-19T03:01:45.865Z,27.25
2022-12-19T03:04:23.246Z,26.30
2022-12-19T03:06:54.902Z,26.58
2022-12-19T03:09:29.369Z,27.40
2022-12-19T03:12:00.418Z,27.63
2022-12-19T03:16:59.271Z,27.27
2022-12-19T03:19:31.429Z,27.02
2022-12-19T03:22:01.013Z,27.05
2022-12-19T03:24:30.582Z,27.30
2022-12-19T03:27:04.171Z,26.02
2022-12-19T03:29:35.443Z,28.05
2022-12-19T03:32:06.327Z,27.13
2022-12-19T03:34:41.125Z,28.17
2022-12-19T03:37:13.277Z,27.40
2022-12-19T03:39:42.877Z,26.55
2022-12-19T03:42:25.081Z,27.20
2022-12-19T03:44:54.825Z,27.77
2022-12-19T03:47:26.601Z,28.02
2022-12-19T03:49:58.757Z,28.23
2022-12-19T03:52:30.534Z,27.52
2022-12-19T03:55:04.031Z,28.00
2022-12-19T03:57:36.146Z,28.98
2022-12-19T04:00:07.774Z,28.33
2022-12-19T04:02:37.906Z,28.52
2022-12-19T04:05:10.846Z,27.98
2022-12-19T04:07:40.516Z,28.38
2022-12-19T04:10:12.126Z,29.13
2022-12-19T04:12:43.538Z,27.98
2022-12-19T04:15:13.897Z,28.60
2022-12-19T04:17:44.981Z,29.05
2022-12-19T04:20:17.753Z,27.83
2022-12-19T04:22:51.804Z,27.98
2022-12-19T04:25:27.841Z,27.88
2022-12-19T04:28:00.207Z,28.38
2022-12-19T04:30:30.260Z,27.98
2022-12-19T04:33:07.936Z,28.15
2022-12-19T04:35:40.178Z,28.40
2022-12-19T04:38:09.677Z,27.70
2022-12-19T04:40:41.521Z,28.92
2022-12-19T04:43:11.674Z,27.67
2022-12-19T04:45:42.015Z,29.17
2022-12-19T04:48:12.019Z,29.25
2022-12-19T04:50:44.146Z,28.83
2022-12-19T04:53:13.804Z,28.80
2022-12-19T04:55:44.257Z,29.48
2022-12-19T04:58:18.945Z,29.73
2022-12-19T05:00:51.125Z,29.88
2022-12-19T05:03:20.688Z,29.88
2022-12-19T05:05:52.876Z,28.52
2022-12-19T05:08:22.445Z,29.58
2022-12-19T05:10:51.953Z,29.98
2022-12-19T05:13:21.524Z,28.25
2022-12-19T05:15:58.720Z,30.02
2022-12-19T05:18:28.287Z,29.65
2022-12-19T05:21:00.432Z,29.10
2022-12-19T05:23:30.074Z,29.23
2022-12-19T05:26:00.493Z,28.55
2022-12-19T05:28:30.196Z,28.88
2022-12-19T05:31:05.573Z,28.20
2022-12-19T05:33:35.131Z,27.90
2022-12-19T05:36:08.515Z,28.65
2022-12-19T05:38:38.283Z,28.92
2022-12-19T05:41:09.927Z,28.52
2022-12-19T05:43:39.501Z,28.52
2022-12-19T05:46:09.287Z,27.55
2022-12-19T05:48:39.193Z,29.05
2022-12-19T05:51:11.428Z,29.20
2022-12-19T05:53:41.680Z,29.45
2022-12-19T05:56:12.076Z,28.92
2022-12-19T05:58:41.886Z,28.95
2022-12-19T06:01:12.521Z,27.85
2022-12-19T06:03:42.148Z,28.33
2022-12-19T06:06:16.033Z,27.98
2022-12-19T06:08:45.618Z,28.38
2022-12-19T06:11:15.293Z,28.27
2022-12-19T06:13:44.791Z,27.40
2022-12-19T06:16:15.516Z,27.55
2022-12-19T06:18:45.970Z,29.20
2022-12-19T06:21:18.920Z,27.77
2022-12-19T06:23:48.573Z,28.58
2022-12-19T06:26:20.183Z,28.55
2022-12-19T06:28:49.976Z,28.23
2022-12-19T06:31:19.619Z,28.83
2022-12-19T06:33:49.099Z,27.73
2022-12-19T06:36:22.439Z,28.52
2022-12-19T06:38:52.274Z,28.98
2022-12-19T06:41:34.302Z,29.17
2022-12-19T06:44:04.451Z,30.55
2022-12-19T06:46:33.981Z,29.43
2022-12-19T06:49:03.622Z,30.02
2022-12-19T06:51:35.659Z,28.40
2022-12-19T06:54:05.155Z,29.70
2022-12-19T06:56:37.067Z,31.52
2022-12-19T06:59:06.576Z,29.42
2022-12-19T07:01:42.221Z,30.25
2022-12-19T07:04:11.942Z,28.67
2022-12-19T07:06:48.843Z,27.98
2022-12-19T07:09:18.755Z,28.63
2022-12-19T07:11:48.194Z,30.15
2022-12-19T07:14:17.685Z,28.95
2022-12-19T07:16:47.135Z,27.98
2022-12-19T07:19:16.778Z,27.88
2022-12-19T07:21:48.840Z,28.30
2022-12-19T07:24:18.285Z,28.58
2022-12-19T07:26:47.744Z,28.55
2022-12-19T07:29:17.175Z,28.35
2022-12-19T07:31:46.737Z,28.38
2022-12-19T07:34:16.291Z,29.08
2022-12-19T07:36:48.381Z,28.10
2022-12-19T07:39:17.818Z,28.33
2022-12-19T07:41:47.286Z,29.30
2022-12-19T07:44:16.753Z,27.90
2022-12-19T07:46:46.274Z,28.08
2022-12-19T07:49:19.658Z,27.50
2022-12-19T07:51:54.540Z,27.00
2022-12-19T07:54:23.961Z,27.23
2022-12-19T07:56:53.500Z,26.92
2022-12-19T07:59:28.942Z,28.17
2022-12-19T08:02:00.081Z,27.45
2022-12-19T08:04:29.626Z,27.83
2022-12-19T08:07:02.324Z,26.83
2022-12-19T08:09:31.848Z,27.20
2022-12-19T08:12:01.522Z,26.92
2022-12-19T08:14:31.027Z,27.20
2022-12-19T08:19:49.951Z,26.58
2022-12-19T08:22:21.989Z,29.02
2022-12-19T08:24:51.572Z,28.67
2022-12-19T08:27:21.258Z,27.30
2022-12-19T08:29:50.739Z,28.52
2022-12-19T08:32:21.408Z,28.48
2022-12-19T08:34:51.244Z,27.67
2022-12-19T08:37:23.395Z,27.13
2022-12-19T08:39:52.991Z,27.45
2022-12-19T08:42:22.528Z,26.20
2022-12-19T08:44:52.086Z,27.98
2022-12-19T08:47:21.605Z,27.30
2022-12-19T08:49:51.177Z,27.83
2022-12-19T08:52:23.587Z,27.70
2022-12-19T08:54:53.045Z,28.63
2022-12-19T08:57:22.495Z,28.55
2022-12-19T08:59:52.038Z,27.98
2022-12-19T09:02:22.657Z,27.98
2022-12-19T09:06:01.001Z,27.52
2022-12-19T09:07:44.457Z,27.60
2022-12-19T09:10:14.015Z,26.75
2022-12-19T09:12:45.371Z,28.83
2022-12-19T09:15:15.298Z,27.60
2022-12-19T09:17:44.807Z,27.98
2022-12-19T09:20:21.243Z,28.02
2022-12-19T09:22:55.331Z,27.55
2022-12-19T09:25:24.896Z,27.58
2022-12-19T09:28:26.390Z,27.35
2022-12-19T09:30:43.933Z,27.23
2022-12-19T09:33:13.576Z,26.80
2022-12-19T09:35:43.135Z,27.75
2022-12-19T09:38:15.230Z,26.98
2022-12-19T09:40:50.585Z,28.25
2022-12-19T09:43:23.755Z,28.00
2022-12-19T09:45:56.685Z,26.52
2022-12-19T09:48:26.571Z,27.58
2022-12-19T09:51:09.585Z,27.40
2022-12-19T09:53:54.497Z,27.45
2022-12-19T09:56:40.185Z,27.52
2022-12-19T09:59:17.173Z,27.73
2022-12-19T10:01:52.753Z,27.45
2022-12-19T10:04:22.432Z,28.10
2022-12-19T10:07:18.250Z,29.13
2022-12-19T10:12:18.076Z,28.13
2022-12-19T10:12:50.947Z,28.70
2022-12-19T10:15:26.012Z,28.52
2022-12-19T10:18:06.273Z,28.63
2022-12-19T10:20:38.528Z,26.58
2022-12-19T10:23:15.496Z,28.27
2022-12-19T10:25:59.729Z,26.15
2022-12-19T10:28:44.889Z,27.02
2022-12-19T10:31:21.832Z,26.42
2022-12-19T10:33:55.107Z,26.92
2022-12-19T10:36:48.558Z,27.58
2022-12-19T10:39:18.059Z,26.60
2022-12-19T10:41:50.224Z,27.50
2022-12-19T10:44:19.791Z,27.65
2022-12-19T10:46:50.045Z,26.38
2022-12-19T10:49:21.852Z,26.80
2022-12-19T10:52:01.628Z,27.02
2022-12-19T10:54:44.016Z,27.63
2022-12-19T10:57:27.059Z,27.33
2022-12-19T11:00:00.731Z,27.38
2022-12-19T11:02:37.339Z,26.58
2022-12-19T11:05:08.665Z,28.15
2022-12-19T11:07:38.231Z,28.48
2022-12-19T11:11:16.888Z,27.15
2022-12-19T11:18:13.822Z,28.17
2022-12-19T11:24:38.722Z,28.48
2022-12-19T11:29:15.184Z,27.48
2022-12-19T11:30:09.083Z,27.98
2022-12-19T11:30:42.998Z,27.23
2022-12-19T11:30:48.669Z,26.83
2022-12-19T11:34:06.049Z,27.45
2022-12-19T11:36:39.222Z,27.42
2022-12-19T11:39:08.854Z,27.58
2022-12-19T11:41:41.927Z,29.05
2022-12-19T11:44:14.624Z,28.67
2022-12-19T11:46:48.234Z,27.40
2022-12-19T11:49:24.240Z,27.00
2022-12-19T11:51:57.521Z,26.33
2022-12-19T11:54:28.407Z,27.13
2022-12-19T11:56:58.541Z,27.65
2022-12-19T11:59:32.313Z,28.00
2022-12-19T12:02:12.932Z,28.13
2022-12-19T12:05:04.406Z,28.15
2022-12-19T12:09:16.363Z,27.33
2022-12-19T12:16:12.552Z,28.13
2022-12-19T12:21:07.922Z,28.35
2022-12-19T12:30:37.285Z,27.83
2022-12-19T12:31:50.629Z,28.85
2022-12-19T12:31:50.992Z,28.25
2022-12-19T12:31:52.735Z,28.67
2022-12-19T12:31:58.475Z,29.35
2022-12-19T12:35:32.769Z,28.45
2022-12-19T12:39:24.332Z,28.95
2022-12-19T12:42:07.536Z,28.02
2022-12-19T12:44:44.841Z,28.80
2022-12-19T12:47:18.199Z,28.67
2022-12-19T12:49:48.523Z,29.73
2022-12-19T12:52:22.273Z,30.58
2022-12-19T12:54:51.856Z,29.73
2022-12-19T12:57:22.839Z,28.77
2022-12-19T12:59:53.747Z,28.52
2022-12-19T13:02:24.683Z,29.42
2022-12-19T13:07:39.023Z,29.02
2022-12-19T13:10:20.523Z,28.25
2022-12-19T13:13:04.394Z,30.13
2022-12-19T13:15:44.124Z,28.38
2022-12-19T13:18:32.705Z,29.88
2022-12-19T13:21:02.808Z,28.85
2022-12-19T13:23:50.927Z,28.40
2022-12-19T13:26:49.356Z,29.02
2022-12-19T13:29:33.529Z,29.48
2022-12-19T13:32:13.621Z,29.10
2022-12-19T13:34:50.486Z,29.17
2022-12-19T13:39:47.687Z,28.42
2022-12-19T13:40:33.063Z,29.77
2022-12-19T13:43:17.791Z,29.77
2022-12-19T13:45:51.709Z,29.30
2022-12-19T13:48:27.294Z,28.83
2022-12-19T13:50:56.812Z,28.23
2022-12-19T13:53:27.898Z,29.80
2022-12-19T13:58:32.475Z,28.83
2022-12-19T14:03:38.826Z,30.75
2022-12-19T14:06:17.542Z,29.85
2022-12-19T14:08:59.203Z,30.50
2022-12-19T14:13:44.921Z,30.25
2022-12-19T14:14:45.021Z,31.02
2022-12-19T14:17:16.212Z,31.20
2022-12-19T14:19:46.758Z,29.33
2022-12-19T14:22:24.691Z,32.00
2022-12-19T14:25:45.238Z,31.33
2022-12-19T14:28:19.528Z,31.83
2022-12-19T14:30:43.571Z,30.50
2022-12-19T14:33:44.501Z,31.05
2022-12-19T14:36:16.018Z,30.67
2022-12-19T14:39:25.475Z,31.05
2022-12-19T14:42:00.400Z,31.23
2022-12-19T14:52:51.901Z,31.48
2022-12-19T14:54:14.924Z,31.25
2022-12-19T14:54:24.479Z,32.28
2022-12-19T14:54:47.597Z,31.67
2022-12-19T14:59:04.855Z,32.53
2022-12-19T15:01:37.160Z,30.83
2022-12-19T15:04:50.230Z,32.88
2022-12-19T15:07:08.494Z,32.72
2022-12-19T15:11:01.105Z,31.88
2022-12-19T15:14:46.907Z,34.20
2022-12-19T15:15:42.527Z,34.53
2022-12-19T15:18:25.772Z,33.85
2022-12-19T15:20:56.311Z,33.97
2022-12-19T15:23:26.141Z,33.22
2022-12-19T15:26:05.062Z,33.65
2022-12-19T15:28:40.100Z,32.93
2022-12-19T15:31:15.760Z,31.88
2022-12-19T15:34:14.890Z,35.28
2022-12-19T15:36:37.237Z,34.35
2022-12-19T15:39:06.948Z,34.80
2022-12-19T15:41:36.426Z,35.35
2022-12-19T15:44:08.754Z,36.80
2022-12-19T15:46:44.473Z,36.00
2022-12-19T15:49:19.852Z,34.72
2022-12-19T15:51:49.351Z,36.30
2022-12-19T15:57:09.381Z,36.88
2022-12-19T15:59:39.764Z,36.83
2022-12-19T16:02:18.562Z,37.08
2022-12-19T16:04:51.263Z,36.20
2022-12-19T16:07:21.879Z,36.88
2022-12-19T16:09:52.808Z,36.03
2022-12-19T16:12:24.887Z,35.83
2022-12-19T16:14:57.897Z,34.53
2022-12-19T16:17:27.700Z,35.17
2022-12-19T16:19:59.788Z,39.08
2022-12-19T16:22:30.370Z,39.15
2022-12-19T16:24:59.869Z,41.63
2022-12-19T16:27:29.976Z,37.53
2022-12-19T16:29:59.948Z,39.50
2022-12-19T16:32:29.407Z,38.88
2022-12-19T16:35:01.503Z,48.47
2022-12-19T16:37:32.589Z,43.33
2022-12-19T16:40:02.266Z,38.20
2022-12-19T16:42:31.770Z,35.08
2022-12-19T16:45:01.188Z,34.97
2022-12-19T16:47:30.801Z,34.95
2022-12-19T16:50:02.975Z,35.90
2022-12-19T16:52:34.980Z,36.65
2022-12-19T16:55:08.923Z,35.70
2022-12-19T16:57:38.350Z,35.13
2022-12-19T17:00:11.108Z,33.53
2022-12-19T17:02:43.861Z,32.60
2022-12-19T17:05:23.932Z,33.20
2022-12-19T17:07:53.564Z,32.35
2022-12-19T17:10:26.385Z,31.67
2022-12-19T17:12:56.112Z,31.67
2022-12-19T17:15:28.164Z,31.77
2022-12-19T17:17:59.159Z,31.60
2022-12-19T17:23:01.005Z,31.10
2022-12-19T17:25:30.468Z,31.23
2022-12-19T17:27:59.895Z,32.35
2022-12-19T17:30:29.403Z,32.22
2022-12-19T17:32:58.940Z,32.85
2022-12-19T17:35:31.014Z,32.50
2022-12-19T17:38:00.687Z,30.85
2022-12-19T17:40:31.116Z,30.65
2022-12-19T17:43:00.726Z,30.83
2022-12-19T17:45:31.596Z,30.95
2022-12-19T17:48:03.176Z,30.60
2022-12-19T17:50:37.990Z,30.15
2022-12-19T17:53:08.492Z,31.05
2022-12-19T17:55:38.043Z,29.85
2022-12-19T17:58:08.034Z,30.88
2022-12-19T18:00:37.606Z,30.70
2022-12-19T18:03:12.977Z,31.15
2022-12-19T18:05:45.523Z,30.52
2022-12-19T18:08:27.284Z,31.70
2022-12-19T18:10:57.102Z,32.33
2022-12-19T18:13:26.596Z,33.50
2022-12-19T18:15:57.089Z,36.15
2022-12-19T18:18:29.309Z,37.05
2022-12-19T18:21:01.564Z,43.92
2022-12-19T18:23:31.135Z,40.75
2022-12-19T18:26:02.162Z,38.88
2022-12-19T18:28:32.645Z,41.80
2022-12-19T18:31:03.293Z,43.60
2022-12-19T18:33:35.794Z,41.97
2022-12-19T18:36:08.414Z,41.45
2022-12-19T18:38:37.885Z,40.78
2022-12-19T18:41:07.669Z,41.05
2022-12-19T18:43:37.162Z,40.92
2022-12-19T18:46:07.071Z,40.85
2022-12-19T18:48:37.142Z,41.45
2022-12-19T18:51:09.319Z,40.80
2022-12-19T18:53:38.912Z,40.83
2022-12-19T18:56:08.796Z,41.88
2022-12-19T18:58:38.315Z,41.03
2022-12-19T19:01:08.700Z,41.15
2022-12-19T19:03:39.158Z,42.40
2022-12-19T19:06:16.782Z,41.78
2022-12-19T19:08:46.280Z,40.38
2022-12-19T19:11:15.746Z,42.35
2022-12-19T19:13:45.270Z,41.10
2022-12-19T19:16:17.866Z,40.65
2022-12-19T19:18:47.553Z,37.67
2022-12-19T19:21:19.581Z,36.72
2022-12-19T19:23:50.323Z,36.88
2022-12-19T19:26:19.787Z,34.50
2022-12-19T19:28:52.564Z,34.88
2022-12-19T19:31:23.461Z,30.70
2022-12-19T19:33:55.418Z,33.22
2022-12-19T19:36:29.239Z,32.25
2022-12-19T19:38:58.931Z,33.92
2022-12-19T19:41:30.166Z,34.38
2022-12-19T19:43:59.927Z,35.05
2022-12-19T19:46:29.744Z,35.40
2022-12-19T19:48:59.698Z,35.40
2022-12-19T19:51:32.271Z,36.42
2022-12-19T19:54:01.733Z,36.15
2022-12-19T19:56:31.181Z,37.20
2022-12-19T19:59:00.763Z,37.13
2022-12-19T20:01:31.014Z,37.53
2022-12-19T20:04:00.617Z,37.70
2022-12-19T20:06:32.757Z,37.25
2022-12-19T20:09:02.359Z,37.67
2022-12-19T20:11:31.871Z,35.60
2022-12-19T20:14:01.308Z,35.72
2022-12-19T20:16:30.846Z,36.28
2022-12-19T20:19:00.347Z,36.80
2022-12-19T20:21:33.427Z,36.30
2022-12-19T20:24:02.865Z,37.13
2022-12-19T20:26:32.344Z,37.08
2022-12-19T20:29:01.806Z,37.25
2022-12-19T20:31:32.495Z,37.65
2022-12-19T20:34:02.145Z,37.05
2022-12-19T20:36:34.235Z,36.33
2022-12-19T20:39:03.709Z,36.75
2022-12-19T20:41:33.673Z,36.13
2022-12-19T20:44:03.147Z,36.47
2022-12-19T20:46:32.760Z,38.22
2022-12-19T20:49:02.314Z,38.55
2022-12-19T20:51:34.377Z,38.35
2022-12-19T20:54:04.794Z,38.97
2022-12-19T20:56:35.208Z,40.60
2022-12-19T20:59:04.736Z,39.17
2022-12-19T21:01:34.374Z,37.13
2022-12-19T21:04:04.068Z,36.67
2022-12-19T21:06:38.026Z,38.13
2022-12-19T21:09:07.667Z,38.55
2022-12-19T21:11:37.323Z,38.90
2022-12-19T21:14:08.026Z,38.70
2022-12-19T21:16:37.950Z,38.22
2022-12-19T21:19:07.568Z,38.42
2022-12-19T21:21:39.733Z,37.78
2022-12-19T21:24:09.563Z,37.28
2022-12-19T21:26:39.074Z,37.85
2022-12-19T21:29:08.531Z,36.97
2022-12-19T21:31:38.066Z,36.83
2022-12-19T21:34:07.531Z,36.95
2022-12-19T21:36:39.666Z,36.15
2022-12-19T21:39:09.179Z,34.67
2022-12-19T21:41:38.669Z,33.67
2022-12-19T21:44:08.145Z,33.67
2022-12-19T21:46:38.151Z,33.42
2022-12-19T21:49:08.786Z,35.45
2022-12-19T21:51:43.562Z,33.45
2022-12-19T21:54:13.012Z,32.50
2022-12-19T21:56:42.764Z,32.47
2022-12-19T21:59:14.185Z,31.75
2022-12-19T22:01:43.952Z,33.92
2022-12-19T22:04:14.716Z,33.53
2022-12-19T22:06:46.845Z,32.83
2022-12-19T22:09:17.859Z,34.95
2022-12-19T22:14:17.087Z,33.38
2022-12-19T22:16:46.696Z,33.95
2022-12-19T22:19:16.460Z,33.95
2022-12-19T22:21:48.782Z,34.97
2022-12-19T22:24:20.004Z,34.50
2022-12-19T22:26:49.518Z,35.47
2022-12-19T22:29:19.329Z,35.45
2022-12-19T22:31:49.632Z,36.45
2022-12-19T22:34:20.106Z,35.17
2022-12-19T22:36:53.131Z,37.25
2022-12-19T22:39:22.797Z,37.58
2022-12-19T22:41:52.229Z,35.63
2022-12-19T22:44:23.261Z,37.83
2022-12-19T22:49:21.945Z,36.80
2022-12-19T22:51:53.988Z,38.38
2022-12-19T22:54:23.440Z,37.75
2022-12-19T22:56:53.386Z,36.50
2022-12-19T22:59:22.929Z,36.88
2022-12-19T23:01:53.031Z,37.90
2022-12-19T23:04:22.869Z,38.55
2022-12-19T23:06:55.027Z,37.17
2022-12-19T23:09:24.491Z,39.17
2022-12-19T23:11:54.255Z,38.67
2022-12-19T23:14:23.831Z,39.20
2022-12-19T23:16:53.465Z,37.95
2022-12-19T23:19:23.051Z,36.90
2022-12-19T23:21:55.349Z,36.80
2022-12-19T23:24:24.891Z,37.47
2022-12-19T23:26:55.778Z,37.20
2022-12-19T23:29:25.596Z,36.95
2022-12-19T23:31:55.165Z,37.35
2022-12-19T23:34:24.763Z,36.83
2022-12-19T23:37:12.935Z,36.70
2022-12-19T23:39:42.708Z,36.85
2022-12-19T23:42:12.250Z,38.15
2022-12-19T23:44:41.943Z,35.42
2022-12-19T23:47:11.489Z,35.97
2022-12-19T23:49:41.413Z,36.72
2022-12-19T23:52:13.573Z,36.60
2022-12-19T23:54:43.106Z,37.78
2022-12-19T23:57:12.643Z,37.42
2022-12-19T23:59:42.218Z,36.58
